createdAt,value
2022-08-26T00:04:18.454Z,100339.48
2022-08-26T00:09:23.419Z,100338.77
2022-08-26T00:14:30.962Z,100334.40
2022-08-26T00:19:34.109Z,100336.72
2022-08-26T00:24:36.985Z,100340.33
2022-08-26T00:29:41.163Z,100338.67
2022-08-26T00:34:44.242Z,100331.73
2022-08-26T00:39:47.107Z,100325.05
2022-08-26T00:44:50.715Z,100328.86
2022-08-26T00:49:54.056Z,100321.20
2022-08-26T00:55:20.497Z,100320.23
2022-08-26T01:00:27.865Z,100322.00
2022-08-26T01:05:32.626Z,100321.70
2022-08-26T01:10:35.761Z,100323.48
2022-08-26T01:15:50.015Z,100323.85
2022-08-26T01:21:22.485Z,100317.59
2022-08-26T01:26:40.647Z,100319.40
2022-08-26T01:31:49.661Z,100318.89
2022-08-26T01:37:11.709Z,100320.09
2022-08-26T01:42:21.379Z,100323.05
2022-08-26T01:47:30.198Z,100323.58
2022-08-26T01:52:38.074Z,100326.27
2022-08-26T01:57:43.243Z,100328.44
2022-08-26T02:02:49.974Z,100329.19
2022-08-26T02:07:53.090Z,100326.23
2022-08-26T02:12:56.266Z,100326.35
2022-08-26T02:18:03.196Z,100326.77
2022-08-26T02:23:07.139Z,100324.60
2022-08-26T02:28:12.766Z,100326.16
2022-08-26T02:33:15.626Z,100320.13
2022-08-26T02:38:18.560Z,100318.36
2022-08-26T02:43:23.858Z,100314.57
2022-08-26T02:48:34.436Z,100312.40
2022-08-26T02:53:39.276Z,100319.05
2022-08-26T02:58:42.673Z,100318.10
2022-08-26T03:03:46.619Z,100316.02
2022-08-26T03:08:53.114Z,100316.96
2022-08-26T03:13:55.928Z,100310.40
2022-08-26T03:18:58.807Z,100309.29
2022-08-26T03:24:02.142Z,100312.94
2022-08-26T03:29:34.988Z,100311.86
2022-08-26T03:34:37.967Z,100312.69
2022-08-26T03:39:41.953Z,100302.73
2022-08-26T03:44:44.751Z,100299.75
2022-08-26T03:49:47.609Z,100294.98
2022-08-26T03:54:51.002Z,100296.77
2022-08-26T03:59:53.851Z,100301.25
2022-08-26T04:04:56.943Z,100302.26
2022-08-26T04:09:59.872Z,100303.39
2022-08-26T04:15:09.157Z,100299.67
2022-08-26T04:20:16.244Z,100303.19
2022-08-26T04:25:20.624Z,100312.13
2022-08-26T04:30:23.643Z,100312.27
2022-08-26T04:35:28.689Z,100318.45
2022-08-26T04:40:32.623Z,100317.57
2022-08-26T04:45:40.646Z,100318.02
2022-08-26T04:50:43.636Z,100315.77
2022-08-26T04:55:46.612Z,100319.55
2022-08-26T05:00:54.105Z,100321.02
2022-08-26T05:05:57.415Z,100325.27
2022-08-26T05:11:05.339Z,100328.76
2022-08-26T05:16:11.923Z,100330.53
2022-08-26T05:21:37.123Z,100332.33
2022-08-26T05:26:42.541Z,100331.20
2022-08-26T05:31:51.737Z,100331.59
2022-08-26T05:36:59.306Z,100333.58
2022-08-26T05:42:03.370Z,100337.30
2022-08-26T05:47:07.776Z,100336.73
2022-08-26T05:52:11.839Z,100341.42
2022-08-26T05:57:15.905Z,100338.73
2022-08-26T06:02:18.959Z,100337.75
2022-08-26T06:07:42.430Z,100332.42
2022-08-26T06:12:45.448Z,100328.71
2022-08-26T06:17:48.517Z,100318.59
2022-08-26T06:23:11.381Z,100322.72
2022-08-26T06:28:15.482Z,100321.05
2022-08-26T06:33:23.500Z,100316.27
2022-08-26T06:38:26.369Z,100315.20
2022-08-26T06:43:29.854Z,100321.84
2022-08-26T06:48:32.923Z,100326.00
2022-08-26T06:53:36.986Z,100327.88
2022-08-26T06:58:42.043Z,100335.64
2022-08-26T07:03:46.640Z,100330.98
2022-08-26T07:08:52.602Z,100329.30
2022-08-26T07:13:56.039Z,100325.53
2022-08-26T07:18:59.023Z,100326.01
2022-08-26T07:24:04.568Z,100329.96
2022-08-26T07:29:07.446Z,100326.45
2022-08-26T07:34:14.000Z,100328.29
2022-08-26T07:39:17.188Z,100332.31
2022-08-26T07:44:21.269Z,100337.41
2022-08-26T07:49:26.737Z,100349.23
2022-08-26T07:54:31.026Z,100348.02
2022-08-26T07:59:34.191Z,100340.83
2022-08-26T08:04:37.206Z,100334.00
2022-08-26T08:09:41.548Z,100339.43
2022-08-26T08:14:46.911Z,100342.36
2022-08-26T08:19:51.591Z,100332.88
2022-08-26T08:24:56.202Z,100327.59
2022-08-26T08:30:00.491Z,100322.88
2022-08-26T08:35:10.945Z,100314.75
2022-08-26T08:40:18.338Z,100306.30
2022-08-26T08:45:51.020Z,100308.80
2022-08-26T08:51:01.698Z,100308.66
2022-08-26T08:56:15.986Z,100302.44
2022-08-26T09:01:26.443Z,100304.27
2022-08-26T09:06:29.847Z,100301.30
2022-08-26T09:11:32.956Z,100305.05
2022-08-26T09:17:00.943Z,100304.52
2022-08-26T09:22:08.735Z,100298.21
2022-08-26T09:27:38.152Z,100292.70
2022-08-26T09:32:42.151Z,100292.53
2022-08-26T09:43:23.117Z,100284.89
2022-08-26T09:48:36.291Z,100275.05
2022-08-26T09:53:52.570Z,100271.58
2022-08-26T09:58:57.332Z,100270.36
2022-08-26T10:04:26.775Z,100267.19
2022-08-26T10:09:37.061Z,100266.95
2022-08-26T10:14:51.576Z,100271.91
2022-08-26T10:20:23.457Z,100269.58
2022-08-26T10:25:33.654Z,100265.27
2022-08-26T10:30:47.352Z,100262.90
2022-08-26T10:35:56.187Z,100259.63
2022-08-26T10:41:10.400Z,100252.15
2022-08-26T10:46:22.570Z,100259.98
2022-08-26T10:51:42.202Z,100258.36
2022-08-26T10:56:55.699Z,100254.77
2022-08-26T11:02:11.804Z,100248.62
2022-08-26T11:07:40.557Z,100241.46
2022-08-26T11:12:49.096Z,100242.60
2022-08-26T11:17:52.162Z,100233.12
2022-08-26T11:23:17.523Z,100229.70
2022-08-26T11:28:34.746Z,100228.36
2022-08-26T11:34:03.367Z,100225.27
2022-08-26T11:39:29.153Z,100219.40
2022-08-26T11:44:49.343Z,100217.45
2022-08-26T11:50:27.004Z,100210.52
2022-08-26T11:55:32.590Z,100207.25
2022-08-26T12:00:45.761Z,100200.48
2022-08-26T12:05:52.571Z,100193.89
2022-08-26T12:11:09.747Z,100189.52
2022-08-26T12:16:13.925Z,100186.13
2022-08-26T12:21:24.423Z,100178.54
2022-08-26T12:26:30.992Z,100173.66
2022-08-26T12:31:40.230Z,100170.39
2022-08-26T12:36:55.270Z,100168.70
2022-08-26T12:41:59.457Z,100162.05
2022-08-26T12:47:10.976Z,100156.26
2022-08-26T12:52:30.212Z,100158.61
2022-08-26T12:57:37.538Z,100151.27
2022-08-26T13:02:40.502Z,100143.85
2022-08-26T13:07:46.088Z,100136.56
2022-08-26T13:12:49.093Z,100129.58
2022-08-26T13:17:52.317Z,100124.15
2022-08-26T13:22:59.609Z,100119.90
2022-08-26T13:28:02.802Z,100119.88
2022-08-26T13:33:05.813Z,100113.30
2022-08-26T13:38:18.590Z,100109.19
2022-08-26T13:43:37.332Z,100106.48
2022-08-26T13:48:43.305Z,100106.36
2022-08-26T13:53:48.668Z,100102.98
2022-08-26T13:58:51.780Z,100097.25
2022-08-26T14:03:56.345Z,100091.73
2022-08-26T14:08:59.654Z,100085.46
2022-08-26T14:14:04.184Z,100084.00
2022-08-26T14:19:09.052Z,100076.10
2022-08-26T14:24:12.218Z,100075.08
2022-08-26T14:29:16.789Z,100066.38
2022-08-26T14:34:20.223Z,100065.92
2022-08-26T14:39:23.359Z,100061.37
2022-08-26T14:44:32.158Z,100056.11
2022-08-26T14:49:35.195Z,100051.15
2022-08-26T14:54:38.239Z,100050.59
2022-08-26T14:59:45.450Z,100043.89
2022-08-26T15:04:53.574Z,100040.23
2022-08-26T15:09:56.591Z,100038.51
2022-08-26T15:14:59.665Z,100035.56
2022-08-26T15:20:04.122Z,100037.00
2022-08-26T15:25:08.398Z,100034.03
2022-08-26T15:30:12.922Z,100026.93
2022-08-26T15:35:15.976Z,100024.54
2022-08-26T15:40:22.069Z,100021.44
2022-08-26T15:45:26.399Z,100015.95
2022-08-26T15:50:30.017Z,100014.52
2022-08-26T15:55:33.056Z,100008.17
2022-08-26T16:00:37.347Z,100001.07
2022-08-26T16:05:43.641Z,99996.46
2022-08-26T16:10:50.599Z,99994.44
2022-08-26T16:15:53.841Z,99988.58
2022-08-26T16:21:13.479Z,99981.77
2022-08-26T16:26:20.736Z,99983.73
2022-08-26T16:31:23.893Z,99983.91
2022-08-26T16:36:27.116Z,99976.04
2022-08-26T16:41:31.501Z,99972.12
2022-08-26T16:46:37.004Z,99969.57
2022-08-26T16:51:40.578Z,99961.75
2022-08-26T16:56:43.501Z,99966.63
2022-08-26T17:01:46.501Z,99970.98
2022-08-26T17:06:50.276Z,99970.55
2022-08-26T17:11:54.436Z,99975.36
2022-08-26T17:16:57.801Z,99978.38
2022-08-26T17:22:00.786Z,99974.83
2022-08-26T17:27:09.268Z,99973.85
2022-08-26T17:32:12.874Z,99977.64
2022-08-26T17:37:16.997Z,99981.63
2022-08-26T17:42:19.983Z,99990.33
2022-08-26T17:47:23.390Z,99988.36
2022-08-26T17:52:26.246Z,100000.39
2022-08-26T17:57:31.338Z,100003.61
2022-08-26T18:02:38.189Z,100007.91
2022-08-26T18:07:44.064Z,100007.73
2022-08-26T18:12:50.922Z,100018.20
2022-08-26T18:17:55.157Z,100019.19
2022-08-26T18:22:59.319Z,100026.45
2022-08-26T18:28:03.117Z,100025.31
2022-08-26T18:33:05.988Z,100027.98
2022-08-26T18:38:11.031Z,100035.54
2022-08-26T18:43:16.035Z,100041.27
2022-08-26T18:48:18.880Z,100049.29
2022-08-26T18:53:21.787Z,100048.65
2022-08-26T18:58:25.570Z,100051.37
2022-08-26T19:03:28.796Z,100051.35
2022-08-26T19:08:32.001Z,100057.53
2022-08-26T19:13:36.541Z,100057.98
2022-08-26T19:18:39.473Z,100053.23
2022-08-26T19:23:42.879Z,100060.61
2022-08-26T19:28:45.810Z,100065.95
2022-08-26T19:33:48.818Z,100065.84
2022-08-26T19:38:55.995Z,100069.42
2022-08-26T19:43:59.534Z,100071.19
2022-08-26T19:49:03.200Z,100074.66
2022-08-26T19:54:06.529Z,100081.64
2022-08-26T19:59:09.400Z,100086.31
2022-08-26T20:04:12.663Z,100086.08
2022-08-26T20:09:15.572Z,100085.88
2022-08-26T20:14:22.960Z,100085.13
2022-08-26T20:19:45.756Z,100085.48
2022-08-26T20:24:49.802Z,100084.15
2022-08-26T20:29:54.024Z,100086.12
2022-08-26T20:34:57.368Z,100093.44
2022-08-26T20:40:01.529Z,100094.83
2022-08-26T20:45:06.847Z,100091.77
2022-08-26T20:50:10.982Z,100087.54
2022-08-26T20:55:14.338Z,100084.67
2022-08-26T21:00:22.771Z,100087.30
2022-08-26T21:05:29.599Z,100084.67
2022-08-26T21:10:32.671Z,100087.46
2022-08-26T21:15:35.819Z,100083.94
2022-08-26T21:20:38.713Z,100075.12
2022-08-26T21:25:42.456Z,100070.16
2022-08-26T21:30:45.423Z,100067.95
2022-08-26T21:35:55.593Z,100062.40
2022-08-26T21:41:05.265Z,100064.46
2022-08-26T21:46:14.293Z,100069.38
2022-08-26T21:51:20.009Z,100076.13
2022-08-26T21:56:26.467Z,100074.70
2022-08-26T22:01:35.079Z,100071.61
2022-08-26T22:06:45.460Z,100069.90
2022-08-26T22:11:49.120Z,100065.63
2022-08-26T22:16:52.259Z,100066.96
2022-08-26T22:21:56.519Z,100071.23
2022-08-26T22:26:59.386Z,100068.73
2022-08-26T22:32:02.519Z,100072.57
2022-08-26T22:37:06.651Z,100070.10
2022-08-26T22:42:09.594Z,100076.79
2022-08-26T22:47:13.473Z,100072.41
2022-08-26T22:52:16.426Z,100072.25
2022-08-26T22:57:21.214Z,100071.52
2022-08-26T23:02:24.439Z,100066.67
2022-08-26T23:07:27.671Z,100058.45
2022-08-26T23:12:31.645Z,100055.61
2022-08-26T23:17:36.089Z,100049.91
2022-08-26T23:22:40.298Z,100050.17
2022-08-26T23:27:43.763Z,100051.02
2022-08-26T23:32:47.013Z,100051.05
2022-08-26T23:37:53.453Z,100038.75
2022-08-26T23:43:04.741Z,100039.16
2022-08-26T23:48:08.540Z,100038.02
2022-08-26T23:53:25.835Z,100032.02
2022-08-26T23:58:28.769Z,100025.42
